sensor_id;sensor_type;location;lat;lon;timestamp;temperature;humidity
21199;DHT22;10757;51.038;3.712;2022-10-16T00:01:26;15.00;99.90
21199;DHT22;10757;51.038;3.712;2022-10-16T00:03:53;14.90;99.90
21199;DHT22;10757;51.038;3.712;2022-10-16T00:06:21;15.20;99.90
21199;DHT22;10757;51.038;3.712;2022-10-16T00:08:47;15.00;99.90
21199;DHT22;10757;51.038;3.712;2022-10-16T00:11:26;15.00;99.90
21199;DHT22;10757;51.038;3.712;2022-10-16T00:13:56;14.80;99.90
21199;DHT22;10757;51.038;3.712;2022-10-16T00:16:22;15.00;99.90
21199;DHT22;10757;51.038;3.712;2022-10-16T00:18:48;15.10;99.90
21199;DHT22;10757;51.038;3.712;2022-10-16T00:21:20;15.00;99.90
21199;DHT22;10757;51.038;3.712;2022-10-16T00:23:45;14.90;99.90
21199;DHT22;10757;51.038;3.712;2022-10-16T00:26:14;14.70;99.90
21199;DHT22;10757;51.038;3.712;2022-10-16T00:28:40;14.70;99.90
21199;DHT22;10757;51.038;3.712;2022-10-16T00:31:08;14.60;99.90
21199;DHT22;10757;51.038;3.712;2022-10-16T00:33:34;14.70;99.90
21199;DHT22;10757;51.038;3.712;2022-10-16T00:36:02;14.60;99.90
21199;DHT22;10757;51.038;3.712;2022-10-16T00:38:27;14.50;99.90
21199;DHT22;10757;51.038;3.712;2022-10-16T00:40:53;14.50;99.90
21199;DHT22;10757;51.038;3.712;2022-10-16T00:46:10;14.40;99.90
21199;DHT22;10757;51.038;3.712;2022-10-16T00:48:36;14.50;99.90
21199;DHT22;10757;51.038;3.712;2022-10-16T00:51:04;14.70;99.90
21199;DHT22;10757;51.038;3.712;2022-10-16T00:53:31;14.50;99.90
21199;DHT22;10757;51.038;3.712;2022-10-16T00:55:57;14.40;99.90
21199;DHT22;10757;51.038;3.712;2022-10-16T00:58:22;14.40;99.90
21199;DHT22;10757;51.038;3.712;2022-10-16T01:00:50;14.30;99.90
21199;DHT22;10757;51.038;3.712;2022-10-16T01:03:31;14.40;99.90
21199;DHT22;10757;51.038;3.712;2022-10-16T01:06:21;14.40;99.90
21199;DHT22;10757;51.038;3.712;2022-10-16T01:09:02;14.50;99.90
21199;DHT22;10757;51.038;3.712;2022-10-16T01:11:54;14.60;99.90
21199;DHT22;10757;51.038;3.712;2022-10-16T01:14:40;14.40;99.90
21199;DHT22;10757;51.038;3.712;2022-10-16T01:17:12;14.60;99.90
21199;DHT22;10757;51.038;3.712;2022-10-16T01:19:56;14.60;99.90
21199;DHT22;10757;51.038;3.712;2022-10-16T01:22:42;14.70;99.90
21199;DHT22;10757;51.038;3.712;2022-10-16T01:25:16;14.50;99.90
21199;DHT22;10757;51.038;3.712;2022-10-16T01:27:46;14.50;99.90
21199;DHT22;10757;51.038;3.712;2022-10-16T01:30:17;14.40;99.90
21199;DHT22;10757;51.038;3.712;2022-10-16T01:32:54;14.50;99.90
21199;DHT22;10757;51.038;3.712;2022-10-16T01:35:27;14.50;99.90
21199;DHT22;10757;51.038;3.712;2022-10-16T01:38:31;14.40;99.90
21199;DHT22;10757;51.038;3.712;2022-10-16T01:41:03;14.50;99.90
21199;DHT22;10757;51.038;3.712;2022-10-16T01:43:40;14.60;99.90
21199;DHT22;10757;51.038;3.712;2022-10-16T01:46:07;14.60;99.90
21199;DHT22;10757;51.038;3.712;2022-10-16T01:48:34;14.70;99.90
21199;DHT22;10757;51.038;3.712;2022-10-16T01:51:07;14.70;99.90
21199;DHT22;10757;51.038;3.712;2022-10-16T01:53:34;14.60;99.90
21199;DHT22;10757;51.038;3.712;2022-10-16T01:56:02;14.70;99.90
21199;DHT22;10757;51.038;3.712;2022-10-16T01:58:34;14.80;99.90
21199;DHT22;10757;51.038;3.712;2022-10-16T02:01:02;14.70;99.90
21199;DHT22;10757;51.038;3.712;2022-10-16T02:03:28;14.50;99.90
21199;DHT22;10757;51.038;3.712;2022-10-16T02:05:56;14.50;99.90
21199;DHT22;10757;51.038;3.712;2022-10-16T02:08:24;14.60;99.90
21199;DHT22;10757;51.038;3.712;2022-10-16T02:10:51;14.60;99.90
21199;DHT22;10757;51.038;3.712;2022-10-16T02:13:23;14.60;99.90
21199;DHT22;10757;51.038;3.712;2022-10-16T02:15:51;14.50;99.90
21199;DHT22;10757;51.038;3.712;2022-10-16T02:18:17;14.60;99.90
21199;DHT22;10757;51.038;3.712;2022-10-16T02:20:53;14.50;99.90
21199;DHT22;10757;51.038;3.712;2022-10-16T02:23:35;14.50;99.90
21199;DHT22;10757;51.038;3.712;2022-10-16T02:26:07;14.50;99.90
21199;DHT22;10757;51.038;3.712;2022-10-16T02:28:56;14.50;99.90
21199;DHT22;10757;51.038;3.712;2022-10-16T02:31:31;14.50;99.90
21199;DHT22;10757;51.038;3.712;2022-10-16T02:34:00;14.40;99.90
21199;DHT22;10757;51.038;3.712;2022-10-16T02:36:29;14.40;99.90
21199;DHT22;10757;51.038;3.712;2022-10-16T02:38:55;14.30;99.90
21199;DHT22;10757;51.038;3.712;2022-10-16T02:41:21;14.50;99.90
21199;DHT22;10757;51.038;3.712;2022-10-16T02:43:49;14.50;99.90
21199;DHT22;10757;51.038;3.712;2022-10-16T02:46:15;14.40;99.90
21199;DHT22;10757;51.038;3.712;2022-10-16T02:48:40;14.40;99.90
21199;DHT22;10757;51.038;3.712;2022-10-16T02:51:06;14.30;99.90
21199;DHT22;10757;51.038;3.712;2022-10-16T02:53:32;14.30;99.90
21199;DHT22;10757;51.038;3.712;2022-10-16T02:55:57;14.20;99.90
21199;DHT22;10757;51.038;3.712;2022-10-16T02:58:23;14.40;99.90
21199;DHT22;10757;51.038;3.712;2022-10-16T03:00:48;14.50;99.90
21199;DHT22;10757;51.038;3.712;2022-10-16T03:03:14;14.60;99.90
21199;DHT22;10757;51.038;3.712;2022-10-16T03:05:40;14.40;99.90
21199;DHT22;10757;51.038;3.712;2022-10-16T03:08:05;14.60;99.90
21199;DHT22;10757;51.038;3.712;2022-10-16T03:10:31;14.40;99.90
21199;DHT22;10757;51.038;3.712;2022-10-16T03:12:57;14.40;99.90
21199;DHT22;10757;51.038;3.712;2022-10-16T03:15:22;14.20;99.90
21199;DHT22;10757;51.038;3.712;2022-10-16T03:17:48;14.20;99.90
21199;DHT22;10757;51.038;3.712;2022-10-16T03:20:14;14.10;99.90
21199;DHT22;10757;51.038;3.712;2022-10-16T03:22:40;14.10;99.90
21199;DHT22;10757;51.038;3.712;2022-10-16T03:25:05;14.30;99.90
21199;DHT22;10757;51.038;3.712;2022-10-16T03:27:31;14.20;99.90
21199;DHT22;10757;51.038;3.712;2022-10-16T03:29:57;14.10;99.90
21199;DHT22;10757;51.038;3.712;2022-10-16T03:32:22;14.10;99.90
21199;DHT22;10757;51.038;3.712;2022-10-16T03:34:50;14.20;99.90
21199;DHT22;10757;51.038;3.712;2022-10-16T03:37:15;14.20;99.90
21199;DHT22;10757;51.038;3.712;2022-10-16T03:39:41;14.20;99.90
21199;DHT22;10757;51.038;3.712;2022-10-16T03:42:09;14.20;99.90
21199;DHT22;10757;51.038;3.712;2022-10-16T03:44:34;14.10;99.90
21199;DHT22;10757;51.038;3.712;2022-10-16T03:47:00;14.20;99.90
21199;DHT22;10757;51.038;3.712;2022-10-16T03:49:26;14.30;99.90
21199;DHT22;10757;51.038;3.712;2022-10-16T03:51:53;14.30;99.90
21199;DHT22;10757;51.038;3.712;2022-10-16T03:54:19;14.20;99.90
21199;DHT22;10757;51.038;3.712;2022-10-16T03:56:44;14.10;99.90
21199;DHT22;10757;51.038;3.712;2022-10-16T03:59:10;14.00;99.90
21199;DHT22;10757;51.038;3.712;2022-10-16T04:01:36;14.10;99.90
21199;DHT22;10757;51.038;3.712;2022-10-16T04:04:01;14.10;99.90
21199;DHT22;10757;51.038;3.712;2022-10-16T04:06:27;14.20;99.90
21199;DHT22;10757;51.038;3.712;2022-10-16T04:08:52;14.00;99.90
21199;DHT22;10757;51.038;3.712;2022-10-16T04:11:18;13.90;99.90
21199;DHT22;10757;51.038;3.712;2022-10-16T04:13:44;14.00;99.90
21199;DHT22;10757;51.038;3.712;2022-10-16T04:16:09;14.00;99.90
21199;DHT22;10757;51.038;3.712;2022-10-16T04:18:35;13.90;99.90
21199;DHT22;10757;51.038;3.712;2022-10-16T04:21:05;14.00;99.90
21199;DHT22;10757;51.038;3.712;2022-10-16T04:23:31;13.80;99.90
21199;DHT22;10757;51.038;3.712;2022-10-16T04:26:00;13.90;99.90
21199;DHT22;10757;51.038;3.712;2022-10-16T04:28:26;13.80;99.90
21199;DHT22;10757;51.038;3.712;2022-10-16T04:30:52;13.90;99.90
21199;DHT22;10757;51.038;3.712;2022-10-16T04:33:17;13.90;99.90
21199;DHT22;10757;51.038;3.712;2022-10-16T04:35:43;13.80;99.90
21199;DHT22;10757;51.038;3.712;2022-10-16T04:38:09;13.90;99.90
21199;DHT22;10757;51.038;3.712;2022-10-16T04:40:34;13.80;99.90
21199;DHT22;10757;51.038;3.712;2022-10-16T04:43:03;13.90;99.90
21199;DHT22;10757;51.038;3.712;2022-10-16T04:45:29;13.80;99.90
21199;DHT22;10757;51.038;3.712;2022-10-16T04:47:58;13.80;99.90
21199;DHT22;10757;51.038;3.712;2022-10-16T04:50:24;13.90;99.90
21199;DHT22;10757;51.038;3.712;2022-10-16T04:52:50;13.80;99.90
21199;DHT22;10757;51.038;3.712;2022-10-16T04:55:18;13.80;99.90
21199;DHT22;10757;51.038;3.712;2022-10-16T04:57:44;13.90;99.90
21199;DHT22;10757;51.038;3.712;2022-10-16T05:00:10;13.90;99.90
21199;DHT22;10757;51.038;3.712;2022-10-16T05:02:36;14.00;99.90
21199;DHT22;10757;51.038;3.712;2022-10-16T05:05:02;14.00;99.90
21199;DHT22;10757;51.038;3.712;2022-10-16T05:07:27;13.90;99.90
21199;DHT22;10757;51.038;3.712;2022-10-16T05:09:54;13.80;99.90
21199;DHT22;10757;51.038;3.712;2022-10-16T05:12:19;13.80;99.90
21199;DHT22;10757;51.038;3.712;2022-10-16T05:14:45;13.80;99.90
21199;DHT22;10757;51.038;3.712;2022-10-16T05:17:10;13.90;99.90
21199;DHT22;10757;51.038;3.712;2022-10-16T05:19:37;14.00;99.90
21199;DHT22;10757;51.038;3.712;2022-10-16T05:22:03;14.20;99.90
21199;DHT22;10757;51.038;3.712;2022-10-16T05:24:28;14.30;99.90
21199;DHT22;10757;51.038;3.712;2022-10-16T05:26:54;14.50;99.90
21199;DHT22;10757;51.038;3.712;2022-10-16T05:29:20;14.50;99.90
21199;DHT22;10757;51.038;3.712;2022-10-16T05:31:46;14.80;99.90
21199;DHT22;10757;51.038;3.712;2022-10-16T05:34:11;14.80;99.90
21199;DHT22;10757;51.038;3.712;2022-10-16T05:36:37;14.70;99.90
21199;DHT22;10757;51.038;3.712;2022-10-16T05:39:03;14.50;99.90
21199;DHT22;10757;51.038;3.712;2022-10-16T05:41:29;14.60;99.90
21199;DHT22;10757;51.038;3.712;2022-10-16T05:43:54;14.60;99.90
21199;DHT22;10757;51.038;3.712;2022-10-16T05:46:20;14.60;99.90
21199;DHT22;10757;51.038;3.712;2022-10-16T05:48:52;14.70;99.90
21199;DHT22;10757;51.038;3.712;2022-10-16T05:51:18;14.80;99.90
21199;DHT22;10757;51.038;3.712;2022-10-16T05:53:43;14.70;99.90
21199;DHT22;10757;51.038;3.712;2022-10-16T05:56:10;14.80;99.90
21199;DHT22;10757;51.038;3.712;2022-10-16T05:58:37;14.50;99.90
21199;DHT22;10757;51.038;3.712;2022-10-16T06:01:06;14.40;99.90
21199;DHT22;10757;51.038;3.712;2022-10-16T06:03:33;14.30;99.90
21199;DHT22;10757;51.038;3.712;2022-10-16T06:05:59;14.20;99.90
21199;DHT22;10757;51.038;3.712;2022-10-16T06:08:24;14.10;99.90
21199;DHT22;10757;51.038;3.712;2022-10-16T06:11:13;13.90;99.90
21199;DHT22;10757;51.038;3.712;2022-10-16T06:13:39;13.90;99.90
21199;DHT22;10757;51.038;3.712;2022-10-16T06:16:09;13.80;99.90
21199;DHT22;10757;51.038;3.712;2022-10-16T06:18:34;13.80;99.90
21199;DHT22;10757;51.038;3.712;2022-10-16T06:21:10;13.90;99.90
21199;DHT22;10757;51.038;3.712;2022-10-16T06:23:36;13.90;99.90
21199;DHT22;10757;51.038;3.712;2022-10-16T06:26:10;13.90;99.90
21199;DHT22;10757;51.038;3.712;2022-10-16T06:28:36;13.80;99.90
21199;DHT22;10757;51.038;3.712;2022-10-16T06:31:05;14.00;99.90
21199;DHT22;10757;51.038;3.712;2022-10-16T06:33:31;14.00;99.90
21199;DHT22;10757;51.038;3.712;2022-10-16T06:36:06;14.10;99.90
21199;DHT22;10757;51.038;3.712;2022-10-16T06:38:34;14.10;99.90
21199;DHT22;10757;51.038;3.712;2022-10-16T06:41:00;14.10;99.90
21199;DHT22;10757;51.038;3.712;2022-10-16T06:43:26;14.20;99.90
21199;DHT22;10757;51.038;3.712;2022-10-16T06:45:56;14.30;99.90
21199;DHT22;10757;51.038;3.712;2022-10-16T06:48:22;14.30;99.90
21199;DHT22;10757;51.038;3.712;2022-10-16T06:51:18;14.20;99.90
21199;DHT22;10757;51.038;3.712;2022-10-16T06:53:46;14.20;99.90
21199;DHT22;10757;51.038;3.712;2022-10-16T06:58:44;14.30;99.90
21199;DHT22;10757;51.038;3.712;2022-10-16T07:01:11;14.20;99.90
21199;DHT22;10757;51.038;3.712;2022-10-16T07:03:38;14.20;99.90
21199;DHT22;10757;51.038;3.712;2022-10-16T07:06:06;14.30;99.90
21199;DHT22;10757;51.038;3.712;2022-10-16T07:08:33;14.40;99.90
21199;DHT22;10757;51.038;3.712;2022-10-16T07:11:00;14.30;99.90
21199;DHT22;10757;51.038;3.712;2022-10-16T07:13:26;14.20;99.90
21199;DHT22;10757;51.038;3.712;2022-10-16T07:15:52;14.20;99.90
21199;DHT22;10757;51.038;3.712;2022-10-16T07:18:17;14.40;99.90
21199;DHT22;10757;51.038;3.712;2022-10-16T07:20:43;14.50;99.90
21199;DHT22;10757;51.038;3.712;2022-10-16T07:23:09;14.60;99.90
21199;DHT22;10757;51.038;3.712;2022-10-16T07:25:35;14.70;99.90
21199;DHT22;10757;51.038;3.712;2022-10-16T07:28:00;14.70;99.90
21199;DHT22;10757;51.038;3.712;2022-10-16T07:30:26;14.70;99.90
21199;DHT22;10757;51.038;3.712;2022-10-16T07:32:51;14.60;99.90
21199;DHT22;10757;51.038;3.712;2022-10-16T07:35:17;14.50;99.90
21199;DHT22;10757;51.038;3.712;2022-10-16T07:37:46;14.60;99.90
21199;DHT22;10757;51.038;3.712;2022-10-16T07:40:12;14.70;99.90
21199;DHT22;10757;51.038;3.712;2022-10-16T07:42:38;14.60;99.90
21199;DHT22;10757;51.038;3.712;2022-10-16T07:45:04;14.70;99.90
21199;DHT22;10757;51.038;3.712;2022-10-16T07:47:30;14.80;99.90
21199;DHT22;10757;51.038;3.712;2022-10-16T07:49:55;15.00;99.90
21199;DHT22;10757;51.038;3.712;2022-10-16T07:52:21;15.00;99.90
21199;DHT22;10757;51.038;3.712;2022-10-16T07:54:47;15.10;99.90
21199;DHT22;10757;51.038;3.712;2022-10-16T07:57:12;15.10;99.90
21199;DHT22;10757;51.038;3.712;2022-10-16T07:59:45;15.00;99.90
21199;DHT22;10757;51.038;3.712;2022-10-16T08:02:10;15.30;99.90
21199;DHT22;10757;51.038;3.712;2022-10-16T08:04:36;15.40;99.90
21199;DHT22;10757;51.038;3.712;2022-10-16T08:07:02;15.50;99.90
21199;DHT22;10757;51.038;3.712;2022-10-16T08:09:27;15.40;99.90
21199;DHT22;10757;51.038;3.712;2022-10-16T08:11:53;15.40;99.90
21199;DHT22;10757;51.038;3.712;2022-10-16T08:14:18;15.50;99.90
21199;DHT22;10757;51.038;3.712;2022-10-16T08:16:44;15.50;99.90
21199;DHT22;10757;51.038;3.712;2022-10-16T08:19:10;15.50;99.90
21199;DHT22;10757;51.038;3.712;2022-10-16T08:21:35;15.50;99.90
21199;DHT22;10757;51.038;3.712;2022-10-16T08:24:01;15.60;99.90
21199;DHT22;10757;51.038;3.712;2022-10-16T08:26:27;15.60;99.90
21199;DHT22;10757;51.038;3.712;2022-10-16T08:28:53;15.60;99.90
21199;DHT22;10757;51.038;3.712;2022-10-16T08:31:20;15.60;99.90
21199;DHT22;10757;51.038;3.712;2022-10-16T08:33:46;15.90;99.90
21199;DHT22;10757;51.038;3.712;2022-10-16T08:36:13;16.20;99.90
21199;DHT22;10757;51.038;3.712;2022-10-16T08:38:39;16.10;99.90
21199;DHT22;10757;51.038;3.712;2022-10-16T08:44:18;16.20;99.90
21199;DHT22;10757;51.038;3.712;2022-10-16T08:47:02;16.30;99.90
21199;DHT22;10757;51.038;3.712;2022-10-16T08:49:33;16.70;99.90
21199;DHT22;10757;51.038;3.712;2022-10-16T08:51:59;16.70;99.90
21199;DHT22;10757;51.038;3.712;2022-10-16T08:54:53;16.60;99.90
21199;DHT22;10757;51.038;3.712;2022-10-16T08:57:21;16.60;99.90
21199;DHT22;10757;51.038;3.712;2022-10-16T08:59:47;16.70;99.90
21199;DHT22;10757;51.038;3.712;2022-10-16T09:10:37;16.90;99.90
21199;DHT22;10757;51.038;3.712;2022-10-16T09:16:34;17.00;99.90
21199;DHT22;10757;51.038;3.712;2022-10-16T09:19:22;17.00;99.90
21199;DHT22;10757;51.038;3.712;2022-10-16T09:21:44;16.90;99.90
21199;DHT22;10757;51.038;3.712;2022-10-16T09:24:16;17.00;99.90
21199;DHT22;10757;51.038;3.712;2022-10-16T09:26:43;17.00;99.90
21199;DHT22;10757;51.038;3.712;2022-10-16T09:29:13;17.00;99.90
21199;DHT22;10757;51.038;3.712;2022-10-16T09:31:39;17.10;99.90
21199;DHT22;10757;51.038;3.712;2022-10-16T09:34:08;17.30;99.90
21199;DHT22;10757;51.038;3.712;2022-10-16T09:36:44;17.60;99.90
21199;DHT22;10757;51.038;3.712;2022-10-16T09:39:11;18.00;99.90
21199;DHT22;10757;51.038;3.712;2022-10-16T09:41:40;18.10;99.90
21199;DHT22;10757;51.038;3.712;2022-10-16T09:47:00;18.00;99.90
21199;DHT22;10757;51.038;3.712;2022-10-16T09:49:26;17.80;99.90
21199;DHT22;10757;51.038;3.712;2022-10-16T09:52:09;17.80;99.90
21199;DHT22;10757;51.038;3.712;2022-10-16T09:54:36;18.10;99.90
21199;DHT22;10757;51.038;3.712;2022-10-16T09:57:06;18.40;99.90
21199;DHT22;10757;51.038;3.712;2022-10-16T09:59:33;18.50;99.90
21199;DHT22;10757;51.038;3.712;2022-10-16T10:02:04;18.40;99.90
21199;DHT22;10757;51.038;3.712;2022-10-16T10:04:42;18.60;99.90
21199;DHT22;10757;51.038;3.712;2022-10-16T10:07:18;18.70;99.90
21199;DHT22;10757;51.038;3.712;2022-10-16T10:09:45;18.70;99.90
21199;DHT22;10757;51.038;3.712;2022-10-16T10:12:21;18.50;99.90
21199;DHT22;10757;51.038;3.712;2022-10-16T10:14:55;18.40;99.90
21199;DHT22;10757;51.038;3.712;2022-10-16T10:17:23;18.50;99.90
21199;DHT22;10757;51.038;3.712;2022-10-16T10:19:53;18.70;99.90
21199;DHT22;10757;51.038;3.712;2022-10-16T10:22:43;18.60;99.90
21199;DHT22;10757;51.038;3.712;2022-10-16T10:30:22;19.00;99.90
21199;DHT22;10757;51.038;3.712;2022-10-16T10:35:44;19.50;99.90
21199;DHT22;10757;51.038;3.712;2022-10-16T10:38:16;19.20;99.90
21199;DHT22;10757;51.038;3.712;2022-10-16T10:46:56;19.50;99.90
21199;DHT22;10757;51.038;3.712;2022-10-16T11:03:37;20.30;99.90
21199;DHT22;10757;51.038;3.712;2022-10-16T11:06:20;20.40;99.90
21199;DHT22;10757;51.038;3.712;2022-10-16T11:08:53;20.30;99.90
21199;DHT22;10757;51.038;3.712;2022-10-16T11:11:29;20.30;99.90
21199;DHT22;10757;51.038;3.712;2022-10-16T11:14:06;20.30;99.90
21199;DHT22;10757;51.038;3.712;2022-10-16T11:16:46;20.40;99.90
21199;DHT22;10757;51.038;3.712;2022-10-16T11:19:33;20.60;99.90
21199;DHT22;10757;51.038;3.712;2022-10-16T11:24:41;20.70;99.90
21199;DHT22;10757;51.038;3.712;2022-10-16T11:27:14;20.60;99.90
21199;DHT22;10757;51.038;3.712;2022-10-16T11:29:48;20.40;99.90
21199;DHT22;10757;51.038;3.712;2022-10-16T11:32:28;20.20;99.90
21199;DHT22;10757;51.038;3.712;2022-10-16T11:34:59;20.20;99.90
21199;DHT22;10757;51.038;3.712;2022-10-16T11:37:32;20.60;99.90
21199;DHT22;10757;51.038;3.712;2022-10-16T11:40:21;20.70;99.90
21199;DHT22;10757;51.038;3.712;2022-10-16T11:42:57;20.90;99.90
21199;DHT22;10757;51.038;3.712;2022-10-16T11:45:33;20.90;99.90
21199;DHT22;10757;51.038;3.712;2022-10-16T11:50:56;21.00;99.90
21199;DHT22;10757;51.038;3.712;2022-10-16T11:56:06;20.90;99.90
21199;DHT22;10757;51.038;3.712;2022-10-16T12:01:29;20.70;99.90
21199;DHT22;10757;51.038;3.712;2022-10-16T12:09:28;20.40;99.90
21199;DHT22;10757;51.038;3.712;2022-10-16T12:11:54;20.10;99.90
21199;DHT22;10757;51.038;3.712;2022-10-16T12:14:33;20.00;99.90
21199;DHT22;10757;51.038;3.712;2022-10-16T12:17:04;20.00;99.90
21199;DHT22;10757;51.038;3.712;2022-10-16T12:25:28;20.50;99.90
21199;DHT22;10757;51.038;3.712;2022-10-16T12:28:04;20.40;99.90
21199;DHT22;10757;51.038;3.712;2022-10-16T12:30:35;20.40;99.90
21199;DHT22;10757;51.038;3.712;2022-10-16T12:33:15;20.30;99.90
21199;DHT22;10757;51.038;3.712;2022-10-16T12:35:45;20.30;99.90
21199;DHT22;10757;51.038;3.712;2022-10-16T12:38:20;20.30;99.90
21199;DHT22;10757;51.038;3.712;2022-10-16T12:40:59;20.50;99.90
21199;DHT22;10757;51.038;3.712;2022-10-16T12:43:36;20.40;99.90
21199;DHT22;10757;51.038;3.712;2022-10-16T12:46:26;20.50;99.90
21199;DHT22;10757;51.038;3.712;2022-10-16T12:51:37;20.80;99.90
21199;DHT22;10757;51.038;3.712;2022-10-16T12:54:15;20.70;99.90
21199;DHT22;10757;51.038;3.712;2022-10-16T13:02:19;20.60;99.90
21199;DHT22;10757;51.038;3.712;2022-10-16T13:15:51;20.90;99.90
21199;DHT22;10757;51.038;3.712;2022-10-16T13:18:22;20.90;99.90
21199;DHT22;10757;51.038;3.712;2022-10-16T13:23:33;20.50;99.90
21199;DHT22;10757;51.038;3.712;2022-10-16T13:26:13;20.30;99.90
21199;DHT22;10757;51.038;3.712;2022-10-16T13:28:41;20.30;99.90
21199;DHT22;10757;51.038;3.712;2022-10-16T13:31:21;20.20;99.90
21199;DHT22;10757;51.038;3.712;2022-10-16T13:33:54;20.10;99.90
21199;DHT22;10757;51.038;3.712;2022-10-16T13:39:14;20.40;99.90
21199;DHT22;10757;51.038;3.712;2022-10-16T13:41:44;20.40;99.90
21199;DHT22;10757;51.038;3.712;2022-10-16T13:44:20;20.40;99.90
21199;DHT22;10757;51.038;3.712;2022-10-16T13:46:46;20.40;99.90
21199;DHT22;10757;51.038;3.712;2022-10-16T13:49:16;20.40;99.90
21199;DHT22;10757;51.038;3.712;2022-10-16T13:51:54;20.00;99.90
21199;DHT22;10757;51.038;3.712;2022-10-16T13:54:20;19.80;99.90
21199;DHT22;10757;51.038;3.712;2022-10-16T13:56:46;19.80;99.90
21199;DHT22;10757;51.038;3.712;2022-10-16T13:59:27;19.90;99.90
21199;DHT22;10757;51.038;3.712;2022-10-16T14:02:04;19.80;99.90
21199;DHT22;10757;51.038;3.712;2022-10-16T14:04:32;19.70;99.90
21199;DHT22;10757;51.038;3.712;2022-10-16T14:06:59;19.80;99.90
21199;DHT22;10757;51.038;3.712;2022-10-16T14:09:29;19.80;99.90
21199;DHT22;10757;51.038;3.712;2022-10-16T14:12:06;19.90;99.90
21199;DHT22;10757;51.038;3.712;2022-10-16T14:14:44;19.80;99.90
21199;DHT22;10757;51.038;3.712;2022-10-16T14:17:24;19.80;99.90
21199;DHT22;10757;51.038;3.712;2022-10-16T14:19:53;19.90;99.90
21199;DHT22;10757;51.038;3.712;2022-10-16T14:22:36;19.60;99.90
21199;DHT22;10757;51.038;3.712;2022-10-16T14:25:26;19.60;99.90
21199;DHT22;10757;51.038;3.712;2022-10-16T14:28:15;19.50;99.90
21199;DHT22;10757;51.038;3.712;2022-10-16T14:30:55;19.40;99.90
21199;DHT22;10757;51.038;3.712;2022-10-16T14:33:23;19.30;99.90
21199;DHT22;10757;51.038;3.712;2022-10-16T14:36:03;19.40;99.90
21199;DHT22;10757;51.038;3.712;2022-10-16T14:38:30;19.40;99.90
21199;DHT22;10757;51.038;3.712;2022-10-16T14:40:57;19.30;99.90
21199;DHT22;10757;51.038;3.712;2022-10-16T14:43:44;19.20;99.90
21199;DHT22;10757;51.038;3.712;2022-10-16T14:46:15;19.20;99.90
21199;DHT22;10757;51.038;3.712;2022-10-16T14:48:43;19.20;99.90
21199;DHT22;10757;51.038;3.712;2022-10-16T14:51:15;19.30;99.90
21199;DHT22;10757;51.038;3.712;2022-10-16T14:53:40;19.20;99.90
21199;DHT22;10757;51.038;3.712;2022-10-16T14:56:24;19.20;99.90
21199;DHT22;10757;51.038;3.712;2022-10-16T14:58:52;19.30;99.90
21199;DHT22;10757;51.038;3.712;2022-10-16T15:01:18;19.30;99.90
21199;DHT22;10757;51.038;3.712;2022-10-16T15:03:44;19.30;99.90
21199;DHT22;10757;51.038;3.712;2022-10-16T15:06:11;19.40;99.90
21199;DHT22;10757;51.038;3.712;2022-10-16T15:08:39;19.40;99.90
21199;DHT22;10757;51.038;3.712;2022-10-16T15:11:05;19.40;99.90
21199;DHT22;10757;51.038;3.712;2022-10-16T15:13:31;19.40;99.90
21199;DHT22;10757;51.038;3.712;2022-10-16T15:15:58;19.30;99.90
21199;DHT22;10757;51.038;3.712;2022-10-16T15:18:30;19.20;99.90
21199;DHT22;10757;51.038;3.712;2022-10-16T15:20:55;19.30;99.90
21199;DHT22;10757;51.038;3.712;2022-10-16T15:23:22;19.20;99.90
21199;DHT22;10757;51.038;3.712;2022-10-16T15:25:52;19.20;99.90
21199;DHT22;10757;51.038;3.712;2022-10-16T15:28:20;19.20;99.90
21199;DHT22;10757;51.038;3.712;2022-10-16T15:30:48;19.30;99.90
21199;DHT22;10757;51.038;3.712;2022-10-16T15:33:17;19.30;99.90
21199;DHT22;10757;51.038;3.712;2022-10-16T15:35:45;19.20;99.90
21199;DHT22;10757;51.038;3.712;2022-10-16T15:38:12;19.20;99.90
21199;DHT22;10757;51.038;3.712;2022-10-16T15:40:38;19.20;99.90
21199;DHT22;10757;51.038;3.712;2022-10-16T15:43:04;19.20;99.90
21199;DHT22;10757;51.038;3.712;2022-10-16T15:45:30;19.30;99.90
21199;DHT22;10757;51.038;3.712;2022-10-16T15:47:56;19.30;99.90
21199;DHT22;10757;51.038;3.712;2022-10-16T15:50:21;19.20;99.90
21199;DHT22;10757;51.038;3.712;2022-10-16T15:52:47;19.20;99.90
21199;DHT22;10757;51.038;3.712;2022-10-16T15:55:14;19.00;99.90
21199;DHT22;10757;51.038;3.712;2022-10-16T15:57:40;19.10;99.90
21199;DHT22;10757;51.038;3.712;2022-10-16T16:00:13;19.20;99.90
21199;DHT22;10757;51.038;3.712;2022-10-16T16:02:40;19.10;99.90
21199;DHT22;10757;51.038;3.712;2022-10-16T16:05:07;19.10;99.90
21199;DHT22;10757;51.038;3.712;2022-10-16T16:07:35;19.10;99.90
21199;DHT22;10757;51.038;3.712;2022-10-16T16:10:05;19.00;99.90
21199;DHT22;10757;51.038;3.712;2022-10-16T16:12:31;19.10;99.90
21199;DHT22;10757;51.038;3.712;2022-10-16T16:14:57;19.10;99.90
21199;DHT22;10757;51.038;3.712;2022-10-16T16:17:23;19.00;99.90
21199;DHT22;10757;51.038;3.712;2022-10-16T16:19:50;19.00;99.90
21199;DHT22;10757;51.038;3.712;2022-10-16T16:22:18;18.90;99.90
21199;DHT22;10757;51.038;3.712;2022-10-16T16:24:44;19.00;99.90
21199;DHT22;10757;51.038;3.712;2022-10-16T16:27:10;19.00;99.90
21199;DHT22;10757;51.038;3.712;2022-10-16T16:29:36;18.90;99.90
21199;DHT22;10757;51.038;3.712;2022-10-16T16:32:10;19.10;99.90
21199;DHT22;10757;51.038;3.712;2022-10-16T16:34:35;19.10;99.90
21199;DHT22;10757;51.038;3.712;2022-10-16T16:37:04;19.00;99.90
21199;DHT22;10757;51.038;3.712;2022-10-16T16:39:30;18.80;99.90
21199;DHT22;10757;51.038;3.712;2022-10-16T16:41:57;18.80;99.90
21199;DHT22;10757;51.038;3.712;2022-10-16T16:44:26;18.90;99.90
21199;DHT22;10757;51.038;3.712;2022-10-16T16:46:52;18.80;99.90
21199;DHT22;10757;51.038;3.712;2022-10-16T16:49:18;18.90;99.90
21199;DHT22;10757;51.038;3.712;2022-10-16T16:51:44;18.90;99.90
21199;DHT22;10757;51.038;3.712;2022-10-16T16:54:11;18.90;99.90
21199;DHT22;10757;51.038;3.712;2022-10-16T16:56:38;18.80;99.90
21199;DHT22;10757;51.038;3.712;2022-10-16T16:59:04;18.80;99.90
21199;DHT22;10757;51.038;3.712;2022-10-16T17:01:30;18.70;99.90
21199;DHT22;10757;51.038;3.712;2022-10-16T17:03:58;18.50;99.90
21199;DHT22;10757;51.038;3.712;2022-10-16T17:06:28;18.40;99.90
21199;DHT22;10757;51.038;3.712;2022-10-16T17:08:55;18.40;99.90
21199;DHT22;10757;51.038;3.712;2022-10-16T17:11:23;18.60;99.90
21199;DHT22;10757;51.038;3.712;2022-10-16T17:13:49;18.70;99.90
21199;DHT22;10757;51.038;3.712;2022-10-16T17:16:16;18.60;99.90
21199;DHT22;10757;51.038;3.712;2022-10-16T17:18:42;18.70;99.90
21199;DHT22;10757;51.038;3.712;2022-10-16T17:21:09;18.70;99.90
21199;DHT22;10757;51.038;3.712;2022-10-16T17:23:36;18.70;99.90